Maple Lake, Minnesota
Current Conditions -  °F | °C
As of 2:15 AM on Monday 24 Nov 2014 (Local Time) from KMGG Reporting Station
Overcast Overcast  
Wind Chill: -7°   Ceiling: 1500
Heat Index: -1°   Visibility: 10mi
Dew Point: -3°   Wind: 17mph
Humidity: 86%   Direction: 290°WNW
Pressure: 29.35"   Gusts: 22mph
Location:  45.23°N, 94°W
Report Text: KMGG 240815Z AUTO 29015G19KT 10SM OVC015 M01/M03 A2935 RMK AO2 T10081028
Loading
Personal Weather Stations






























Interactive Weather Map New forecast layout! Learn more

10-Day Weather Forecast

Advertisements
Track Severe Weather on mobile